createdAt,value
2018-04-06T00:00:35.535Z,102065.27
2018-04-06T00:01:39.747Z,102066.02
2018-04-06T00:02:46.746Z,102062.91
2018-04-06T00:03:54.539Z,102070.92
2018-04-06T00:05:01.258Z,102067.52
2018-04-06T00:06:05.836Z,102070.52
2018-04-06T00:07:10.033Z,102072.47
2018-04-06T00:08:17.602Z,102071.27
2018-04-06T00:09:24.150Z,102067.20
2018-04-06T00:10:30.864Z,102071.83
2018-04-06T00:11:35.114Z,102070.06
2018-04-06T00:12:39.327Z,102067.52
2018-04-06T00:13:46.312Z,102068.86
2018-04-06T00:14:52.644Z,102072.28
2018-04-06T00:15:59.168Z,102073.36
2018-04-06T00:17:03.398Z,102076.20
2018-04-06T00:18:07.595Z,102076.90
2018-04-06T00:19:11.793Z,102072.62
2018-04-06T00:20:21.613Z,102071.41
2018-04-06T00:21:29.611Z,102070.73
2018-04-06T00:22:33.853Z,102070.83
2018-04-06T00:23:38.076Z,102074.97
2018-04-06T00:24:42.351Z,102075.33
2018-04-06T00:25:49.266Z,102074.08
2018-04-06T00:26:55.008Z,102074.63
2018-04-06T00:27:59.699Z,102071.00
2018-04-06T00:29:03.981Z,102071.95
2018-04-06T00:30:08.956Z,102070.84
2018-04-06T00:31:14.418Z,102067.52
2018-04-06T00:32:22.941Z,102073.93
2018-04-06T00:33:29.631Z,102070.09
2018-04-06T00:34:33.857Z,102070.13
2018-04-06T00:35:38.106Z,102068.73
2018-04-06T00:36:44.068Z,102073.30
2018-04-06T00:37:52.165Z,102076.12
2018-04-06T00:38:58.135Z,102075.16
2018-04-06T00:40:03.360Z,102072.58
2018-04-06T00:41:07.930Z,102071.72
2018-04-06T00:42:12.604Z,102072.53
2018-04-06T00:43:19.636Z,102068.91
2018-04-06T00:44:26.302Z,102078.07
2018-04-06T00:45:31.901Z,102069.25
2018-04-06T00:46:36.105Z,102076.14
2018-04-06T00:47:40.356Z,102068.10
2018-04-06T00:48:48.632Z,102075.56
2018-04-06T00:49:55.396Z,102072.62
2018-04-06T00:51:00.446Z,102078.53
2018-04-06T00:52:05.407Z,102075.81
2018-04-06T00:54:54.227Z,102076.66
2018-04-06T00:55:59.729Z,102075.66
2018-04-06T00:57:03.942Z,102073.19
2018-04-06T00:58:08.131Z,102069.78
2018-04-06T00:59:12.780Z,102073.21
2018-04-06T01:00:20.774Z,102076.59
2018-04-06T01:01:27.511Z,102075.80
2018-04-06T01:02:32.680Z,102076.09
2018-04-06T01:03:36.866Z,102073.75
2018-04-06T01:04:41.087Z,102077.59
2018-04-06T01:05:46.851Z,102081.44
2018-04-06T01:06:56.246Z,102076.09
2018-04-06T01:08:01.500Z,102077.84
2018-04-06T01:09:06.530Z,102080.87
2018-04-06T01:10:17.548Z,102076.57
2018-04-06T01:11:23.001Z,102072.72
2018-04-06T01:12:28.794Z,102071.59
2018-04-06T01:13:33.000Z,102075.52
2018-04-06T01:14:37.199Z,102077.62
2018-04-06T01:15:41.428Z,102071.17
2018-04-06T01:16:50.782Z,102066.98
2018-04-06T01:17:56.833Z,102069.06
2018-04-06T01:19:01.450Z,102072.05
2018-04-06T01:20:05.655Z,102070.00
2018-04-06T01:21:09.847Z,102070.37
2018-04-06T01:22:18.465Z,102072.36
2018-04-06T01:23:24.793Z,102076.88
2018-04-06T01:24:30.726Z,102073.78
2018-04-06T01:25:34.941Z,102076.03
2018-04-06T01:26:39.133Z,102074.37
2018-04-06T01:27:46.250Z,102076.48
2018-04-06T01:28:53.510Z,102070.15
2018-04-06T01:30:00.320Z,102079.00
2018-04-06T01:31:04.536Z,102073.01
2018-04-06T01:32:08.732Z,102076.22
2018-04-06T01:33:15.862Z,102072.34
2018-04-06T01:34:25.311Z,102074.50
2018-04-06T01:35:31.304Z,102073.58
2018-04-06T01:36:38.116Z,102073.20
2018-04-06T01:37:44.165Z,102066.99
2018-04-06T01:38:52.252Z,102066.64
2018-04-06T01:39:58.610Z,102067.93
2018-04-06T01:41:02.819Z,102068.72
2018-04-06T01:42:07.009Z,102066.23
2018-04-06T01:43:11.971Z,102067.14
2018-04-06T01:44:22.410Z,102063.39
2018-04-06T01:45:29.144Z,102071.77
2018-04-06T01:46:33.495Z,102059.17
2018-04-06T01:47:37.699Z,102062.20
2018-04-06T01:48:42.086Z,102063.14
2018-04-06T01:49:51.491Z,102058.09
2018-04-06T01:50:58.278Z,102056.92
2018-04-06T01:52:02.600Z,102064.14
2018-04-06T01:53:06.813Z,102057.91
2018-04-06T01:54:11.811Z,102056.66
2018-04-06T01:55:22.165Z,102055.34
2018-04-06T01:56:29.288Z,102052.42
2018-04-06T01:57:34.297Z,102053.27
2018-04-06T01:58:38.486Z,102058.75
2018-04-06T01:59:44.417Z,102055.81
2018-04-06T02:00:51.256Z,102052.81
2018-04-06T02:01:57.536Z,102055.02
2018-04-06T02:03:03.014Z,102055.86
2018-04-06T02:04:07.207Z,102051.33
2018-04-06T02:05:11.413Z,102055.15
2018-04-06T02:06:20.740Z,102058.51
2018-04-06T02:07:26.333Z,102055.48
2018-04-06T02:08:31.086Z,102055.14
2018-04-06T02:09:35.269Z,102062.14
2018-04-06T02:10:40.248Z,102058.16
2018-04-06T02:11:48.701Z,102063.67
2018-04-06T02:12:55.556Z,102061.89
2018-04-06T02:14:01.293Z,102061.52
2018-04-06T02:15:05.516Z,102061.56
2018-04-06T02:16:09.736Z,102060.45
2018-04-06T02:17:17.190Z,102064.67
2018-04-06T02:18:23.294Z,102066.16
2018-04-06T02:19:29.878Z,102059.69
2018-04-06T02:20:34.088Z,102064.26
2018-04-06T02:21:38.327Z,102067.00
2018-04-06T02:22:43.127Z,102066.48
2018-04-06T02:23:52.353Z,102069.48
2018-04-06T02:25:00.218Z,102066.11
2018-04-06T02:26:04.420Z,102071.55
2018-04-06T02:27:08.610Z,102069.80
2018-04-06T02:28:14.023Z,102068.63
2018-04-06T02:29:20.116Z,102070.00
2018-04-06T02:30:27.925Z,102075.53
2018-04-06T02:31:32.697Z,102067.98
2018-04-06T02:32:36.890Z,102069.39
2018-04-06T02:33:41.155Z,102072.27
2018-04-06T02:34:48.637Z,102068.55
2018-04-06T02:35:55.157Z,102069.77
2018-04-06T02:37:01.702Z,102063.39
2018-04-06T02:38:05.916Z,102067.16
2018-04-06T02:39:10.162Z,102071.74
2018-04-06T02:40:16.959Z,102069.74
2018-04-06T02:41:24.106Z,102067.52
2018-04-06T02:42:29.863Z,102066.63
2018-04-06T02:43:34.086Z,102068.31
2018-04-06T02:44:38.345Z,102064.54
2018-04-06T02:45:45.465Z,102067.82
2018-04-06T02:46:54.793Z,102067.37
2018-04-06T02:48:01.523Z,102066.66
2018-04-06T02:49:05.725Z,102070.30
2018-04-06T02:50:10.312Z,102072.67
2018-04-06T02:51:19.809Z,102070.09
2018-04-06T02:52:25.180Z,102069.22
2018-04-06T02:53:30.044Z,102067.52
2018-04-06T02:54:34.247Z,102068.39
2018-04-06T02:55:38.683Z,102071.41
2018-04-06T02:56:44.480Z,102068.11
2018-04-06T02:57:51.067Z,102069.34
2018-04-06T02:58:56.577Z,102066.37
2018-04-06T03:00:01.759Z,102067.30
2018-04-06T03:01:06.748Z,102065.65
2018-04-06T03:02:10.939Z,102066.12
2018-04-06T03:03:18.517Z,102069.22
2018-04-06T03:04:27.029Z,102075.61
2018-04-06T03:05:32.083Z,102076.14
2018-04-06T03:06:36.289Z,102076.89
2018-04-06T03:07:49.034Z,102074.28
2018-04-06T03:08:55.055Z,102070.09
2018-04-06T03:10:00.439Z,102072.22
2018-04-06T03:11:04.651Z,102074.00
2018-04-06T03:12:08.834Z,102070.53
2018-04-06T03:13:15.001Z,102075.97
2018-04-06T03:14:22.265Z,102075.95
2018-04-06T03:15:28.920Z,102075.15
2018-04-06T03:16:33.186Z,102072.59
2018-04-06T03:17:37.393Z,102074.78
2018-04-06T03:18:41.608Z,102068.77
2018-04-06T03:19:49.752Z,102069.97
2018-04-06T03:20:57.004Z,102073.36
2018-04-06T03:22:01.508Z,102074.20
2018-04-06T03:23:05.705Z,102073.42
2018-04-06T03:24:09.915Z,102071.42
2018-04-06T03:25:16.180Z,102067.30
2018-04-06T03:26:23.777Z,102068.54
2018-04-06T03:27:29.371Z,102071.09
2018-04-06T03:28:33.639Z,102072.03
2018-04-06T03:29:37.835Z,102070.87
2018-04-06T03:30:42.094Z,102074.27
2018-04-06T03:31:50.232Z,102064.09
2018-04-06T03:32:56.081Z,102069.55
2018-04-06T03:34:00.732Z,102064.94
2018-04-06T03:35:05.296Z,102070.06
2018-04-06T03:36:09.504Z,102070.85
2018-04-06T03:37:15.458Z,102072.08
2018-04-06T03:38:22.819Z,102066.59
2018-04-06T03:39:30.189Z,102064.11
2018-04-06T03:40:34.414Z,102061.03
2018-04-06T03:41:39.398Z,102064.39
2018-04-06T03:42:44.141Z,102062.14
2018-04-06T03:43:50.692Z,102062.52
2018-04-06T03:45:01.026Z,102066.75
2018-04-06T03:46:05.309Z,102066.36
2018-04-06T03:47:09.519Z,102065.47
2018-04-06T03:48:15.120Z,102062.40
2018-04-06T03:49:22.379Z,102065.23
2018-04-06T03:50:31.601Z,102067.41
2018-04-06T03:51:35.818Z,102068.20
2018-04-06T03:52:40.016Z,102065.19
2018-04-06T03:53:49.463Z,102064.86
2018-04-06T03:54:55.921Z,102063.59
2018-04-06T03:56:01.659Z,102064.80
2018-04-06T03:57:05.848Z,102066.89
2018-04-06T03:58:10.034Z,102068.98
2018-04-06T03:59:17.248Z,102070.20
2018-04-06T04:00:23.704Z,102070.59
2018-04-06T04:01:29.326Z,102064.61
2018-04-06T04:02:33.544Z,102072.18
2018-04-06T04:03:38.494Z,102070.92
2018-04-06T04:04:43.393Z,102067.91
2018-04-06T04:05:51.373Z,102068.20
2018-04-06T04:06:57.637Z,102072.12
2018-04-06T04:08:02.064Z,102067.77
2018-04-06T04:09:07.077Z,102070.65
2018-04-06T04:10:11.331Z,102077.78
2018-04-06T04:11:19.850Z,102081.27
2018-04-06T04:12:25.322Z,102078.19
2018-04-06T04:13:30.858Z,102081.50
2018-04-06T04:14:35.068Z,102080.25
2018-04-06T04:15:39.312Z,102076.46
2018-04-06T04:16:45.109Z,102078.81
2018-04-06T04:17:51.359Z,102073.81
2018-04-06T04:18:56.278Z,102078.00
2018-04-06T04:20:01.369Z,102075.17
2018-04-06T04:21:05.582Z,102078.78
2018-04-06T04:22:09.838Z,102077.92
2018-04-06T04:23:15.131Z,102072.25
2018-04-06T04:24:20.210Z,102072.68
2018-04-06T04:25:27.032Z,102072.91
2018-04-06T04:26:31.657Z,102071.11
2018-04-06T04:27:35.971Z,102071.86
2018-04-06T04:28:40.175Z,102075.73
2018-04-06T04:29:46.833Z,102075.39
2018-04-06T04:30:52.372Z,102075.41
2018-04-06T04:31:58.750Z,102076.29
2018-04-06T04:33:03.438Z,102075.48
2018-04-06T04:34:07.638Z,102075.87
2018-04-06T04:35:11.855Z,102072.08
2018-04-06T04:36:23.610Z,102072.05
2018-04-06T04:37:30.713Z,102074.42
2018-04-06T04:38:35.553Z,102078.03
2018-04-06T04:39:39.908Z,102069.55
2018-04-06T04:40:45.287Z,102071.23
2018-04-06T04:41:52.323Z,102068.81
2018-04-06T04:42:57.741Z,102063.98
2018-04-06T04:44:02.870Z,102063.63
2018-04-06T04:45:07.085Z,102061.23
2018-04-06T04:46:11.293Z,102063.20
2018-04-06T04:47:16.881Z,102061.89
2018-04-06T04:48:23.715Z,102060.92
2018-04-06T04:49:29.091Z,102061.19
2018-04-06T04:50:34.796Z,102062.45
2018-04-06T04:51:38.991Z,102060.36
2018-04-06T04:52:43.874Z,102054.30
2018-04-06T04:53:51.144Z,102055.06
2018-04-06T04:55:00.751Z,102049.42
2018-04-06T04:56:04.948Z,102048.27
2018-04-06T04:57:09.141Z,102049.56
2018-04-06T04:58:14.064Z,102052.42
2018-04-06T04:59:21.411Z,102048.22
2018-04-06T05:00:27.048Z,102052.77
2018-04-06T05:01:31.298Z,102054.92
2018-04-06T05:02:35.496Z,102056.59
2018-04-06T05:03:39.699Z,102058.33
2018-04-06T05:04:45.910Z,102057.52
2018-04-06T05:05:52.623Z,102055.85
2018-04-06T05:06:58.962Z,102054.64
2018-04-06T05:08:03.206Z,102060.47
2018-04-06T05:09:07.439Z,102059.73
2018-04-06T05:10:11.717Z,102064.08
2018-04-06T05:11:18.076Z,102065.36
2018-04-06T05:12:27.793Z,102064.12
2018-04-06T05:13:32.901Z,102066.92
2018-04-06T05:14:37.113Z,102069.50
2018-04-06T05:15:41.311Z,102070.78
2018-04-06T05:16:48.610Z,102071.54
2018-04-06T05:17:55.700Z,102071.05
2018-04-06T05:19:00.302Z,102073.27
2018-04-06T05:20:04.562Z,102070.33
2018-04-06T05:21:09.531Z,102070.91
2018-04-06T05:22:14.248Z,102070.55
2018-04-06T05:23:19.888Z,102072.00
2018-04-06T05:24:24.728Z,102067.73
2018-04-06T05:25:30.623Z,102065.94
2018-04-06T05:26:35.582Z,102071.47
2018-04-06T05:27:39.816Z,102071.94
2018-04-06T05:28:47.392Z,102072.52
2018-04-06T05:29:52.695Z,102075.02
2018-04-06T05:30:57.888Z,102073.08
2018-04-06T05:32:02.457Z,102073.92
2018-04-06T05:33:07.412Z,102072.12
2018-04-06T05:34:11.654Z,102079.00
2018-04-06T05:35:18.193Z,102079.05
2018-04-06T05:36:25.959Z,102078.30
2018-04-06T05:37:30.862Z,102077.16
2018-04-06T05:38:35.052Z,102075.20
2018-04-06T05:39:39.304Z,102074.97
2018-04-06T05:40:45.155Z,102079.30
2018-04-06T05:41:53.807Z,102078.53
2018-04-06T05:43:00.284Z,102071.88
2018-04-06T05:44:04.476Z,102077.94
2018-04-06T05:45:08.707Z,102077.58
2018-04-06T05:46:13.556Z,102074.66
2018-04-06T05:47:22.037Z,102077.35
2018-04-06T05:48:29.646Z,102077.00
2018-04-06T05:49:33.854Z,102077.18
2018-04-06T05:50:38.048Z,102069.70
2018-04-06T05:51:42.358Z,102071.11
2018-04-06T05:52:51.328Z,102068.72
2018-04-06T05:53:58.091Z,102067.09
2018-04-06T05:55:02.373Z,102065.78
2018-04-06T05:56:06.897Z,102068.80
2018-04-06T05:57:11.097Z,102067.97
2018-04-06T05:58:19.048Z,102066.67
2018-04-06T05:59:26.257Z,102070.13
2018-04-06T06:00:31.597Z,102063.52
2018-04-06T06:01:35.784Z,102063.64
2018-04-06T06:02:40.747Z,102066.17
2018-04-06T06:03:47.916Z,102061.99
2018-04-06T06:04:53.143Z,102068.80
2018-04-06T06:05:58.588Z,102068.59
2018-04-06T06:07:03.752Z,102065.77
2018-04-06T06:08:07.954Z,102062.40
2018-04-06T06:09:13.262Z,102060.41
2018-04-06T06:10:21.904Z,102061.30
2018-04-06T06:11:28.752Z,102055.08
2018-04-06T06:12:33.117Z,102056.38
2018-04-06T06:13:37.364Z,102054.39
2018-04-06T06:14:42.615Z,102058.27
2018-04-06T06:15:51.646Z,102058.32
2018-04-06T06:16:57.557Z,102054.70
2018-04-06T06:18:02.158Z,102053.12
2018-04-06T06:19:06.359Z,102049.42
2018-04-06T06:20:10.563Z,102047.41
2018-04-06T06:21:18.017Z,102049.30
2018-04-06T06:22:26.129Z,102049.80
2018-04-06T06:23:30.838Z,102050.66
2018-04-06T06:24:35.063Z,102046.08
2018-04-06T06:25:39.238Z,102048.77
2018-04-06T06:26:46.146Z,102045.88
2018-04-06T06:27:53.450Z,102041.72
2018-04-06T06:29:00.053Z,102041.83
2018-04-06T06:30:05.049Z,102035.58
2018-04-06T06:31:09.389Z,102041.55
2018-04-06T06:32:15.286Z,102041.19
2018-04-06T06:33:21.884Z,102032.31
2018-04-06T06:34:27.791Z,102036.30
2018-04-06T06:35:32.291Z,102038.55
2018-04-06T06:36:37.255Z,102039.09
2018-04-06T06:37:41.463Z,102038.89
2018-04-06T06:38:48.947Z,102045.20
2018-04-06T06:39:57.436Z,102046.19
2018-04-06T06:41:02.801Z,102041.55
2018-04-06T06:42:07.030Z,102042.09
2018-04-06T06:43:11.215Z,102039.09
2018-04-06T06:44:23.232Z,102043.36
2018-04-06T06:45:29.968Z,102038.34
2018-04-06T06:46:34.168Z,102048.27
2018-04-06T06:47:39.138Z,102038.65
2018-04-06T06:48:44.914Z,102036.98
2018-04-06T06:49:53.184Z,102040.47
2018-04-06T06:50:59.876Z,102035.11
2018-04-06T06:52:04.101Z,102032.64
2018-04-06T06:53:08.671Z,102036.91
2018-04-06T06:54:14.315Z,102032.79
2018-04-06T06:55:20.689Z,102030.77
2018-04-06T06:56:25.866Z,102028.72
2018-04-06T06:57:30.265Z,102023.34
2018-04-06T06:58:34.503Z,102022.16
2018-04-06T06:59:39.467Z,102023.88
2018-04-06T07:00:46.028Z,102032.00
2018-04-06T07:01:53.391Z,102028.63
2018-04-06T07:02:58.674Z,102025.24
2018-04-06T07:04:02.914Z,102025.33
2018-04-06T07:05:07.476Z,102030.01
2018-04-06T07:06:11.673Z,102028.33
2018-04-06T07:07:20.029Z,102031.83
2018-04-06T07:08:27.539Z,102025.35
2018-04-06T07:09:32.096Z,102027.53
2018-04-06T07:10:36.320Z,102027.59
2018-04-06T07:11:40.563Z,102026.36
2018-04-06T07:12:49.670Z,102019.28
2018-04-06T07:13:56.930Z,102018.02
2018-04-06T07:15:02.062Z,102020.69
2018-04-06T07:16:06.279Z,102013.37
2018-04-06T07:17:10.472Z,102010.83
2018-04-06T07:18:17.334Z,102018.56
2018-04-06T07:19:24.918Z,102019.11
2018-04-06T07:20:30.295Z,102014.62
2018-04-06T07:21:34.489Z,102023.02
2018-04-06T07:22:38.678Z,102014.45
2018-04-06T07:23:46.653Z,102010.80
2018-04-06T07:24:54.041Z,102011.77
2018-04-06T07:26:01.097Z,102018.22
2018-04-06T07:27:05.314Z,102014.06
2018-04-06T07:28:09.493Z,102014.09
2018-04-06T07:29:17.615Z,102016.28
2018-04-06T07:30:26.222Z,102010.86
2018-04-06T07:31:31.145Z,102009.66
2018-04-06T07:32:35.359Z,102016.92
2018-04-06T07:33:39.549Z,102016.56
2018-04-06T07:34:45.603Z,102014.99
2018-04-06T07:35:54.112Z,102016.28
2018-04-06T07:37:00.308Z,102008.25
2018-04-06T07:38:04.501Z,102009.51
2018-04-06T07:39:08.686Z,102017.92
2018-04-06T07:40:17.074Z,102011.55
2018-04-06T07:41:28.448Z,102017.48
2018-04-06T07:42:32.975Z,102016.71
2018-04-06T07:43:37.934Z,102018.02
2018-04-06T07:44:42.285Z,102018.14
2018-04-06T07:45:50.368Z,102013.02
2018-04-06T07:46:59.476Z,102016.48
2018-04-06T07:48:04.447Z,102009.81
2018-04-06T07:49:08.636Z,102007.38
2018-04-06T07:50:13.761Z,102014.63
2018-04-06T07:51:22.088Z,102007.91
2018-04-06T07:52:30.041Z,102009.81
2018-04-06T07:53:34.284Z,102014.52
2018-04-06T07:54:38.476Z,102013.35
2018-04-06T07:55:42.972Z,102012.98
2018-04-06T07:56:52.298Z,102004.12
2018-04-06T07:57:58.038Z,102011.00
2018-04-06T07:59:02.981Z,102009.79
2018-04-06T08:00:07.195Z,102010.11
2018-04-06T08:01:11.397Z,102017.63
2018-04-06T08:02:19.134Z,102021.85
2018-04-06T08:03:28.380Z,102014.16
2018-04-06T08:04:33.057Z,102019.66
2018-04-06T08:05:37.246Z,102021.45
2018-04-06T08:06:42.227Z,102022.77
2018-04-06T08:07:51.658Z,102024.05
2018-04-06T08:08:58.802Z,102015.66
2018-04-06T08:10:03.422Z,102015.73
2018-04-06T08:11:07.641Z,102010.69
2018-04-06T08:12:11.840Z,102010.34
2018-04-06T08:13:20.435Z,102017.66
2018-04-06T08:14:28.762Z,102015.48
2018-04-06T08:15:33.173Z,102018.39
2018-04-06T08:16:38.150Z,102017.55
2018-04-06T08:17:42.392Z,102019.30
2018-04-06T08:18:50.160Z,102017.56
2018-04-06T08:19:57.520Z,102016.73
2018-04-06T08:21:03.930Z,102019.75
2018-04-06T08:22:08.929Z,102021.46
2018-04-06T08:23:14.564Z,102015.06
2018-04-06T08:24:21.692Z,102019.67
2018-04-06T08:25:30.047Z,102021.81
2018-04-06T08:26:34.290Z,102018.06
2018-04-06T08:27:38.487Z,102023.63
2018-04-06T08:28:42.988Z,102030.82
2018-04-06T08:29:51.683Z,102024.53
2018-04-06T08:30:57.417Z,102021.61
2018-04-06T08:32:03.124Z,102022.03
2018-04-06T08:33:07.335Z,102022.98
2018-04-06T08:34:11.520Z,102029.84
2018-04-06T08:35:19.743Z,102023.94
2018-04-06T08:36:27.575Z,102020.14
2018-04-06T08:37:31.900Z,102027.87
2018-04-06T08:38:36.854Z,102023.66
2018-04-06T08:39:41.261Z,102025.81
2018-04-06T08:40:50.316Z,102026.25
2018-04-06T08:41:57.306Z,102022.45
2018-04-06T08:43:02.541Z,102017.80
2018-04-06T08:44:06.739Z,102022.48
2018-04-06T08:45:10.919Z,102022.94
2018-04-06T08:46:16.394Z,102028.91
2018-04-06T08:47:23.226Z,102023.41
2018-04-06T08:48:28.638Z,102021.69
2018-04-06T08:49:32.909Z,102021.69
2018-04-06T08:50:37.093Z,102018.28
2018-04-06T08:51:41.293Z,102017.88
2018-04-06T08:52:48.827Z,102018.30
2018-04-06T08:53:57.041Z,102011.05
2018-04-06T08:55:02.068Z,102008.50
2018-04-06T08:56:06.257Z,102014.90
2018-04-06T08:57:10.470Z,102013.62
2018-04-06T08:58:19.198Z,102017.89
2018-04-06T08:59:26.478Z,102012.35
2018-04-06T09:00:31.465Z,102006.39
2018-04-06T09:01:35.669Z,102009.37
2018-04-06T09:02:40.631Z,102009.37
2018-04-06T09:03:46.574Z,102005.94
2018-04-06T09:04:52.224Z,102005.09
2018-04-06T09:05:57.623Z,101999.14
2018-04-06T09:07:02.600Z,102000.83
2018-04-06T09:08:06.817Z,102002.95
2018-04-06T09:09:11.009Z,102001.68
2018-04-06T09:10:16.862Z,102005.51
2018-04-06T09:11:22.857Z,101998.25
2018-04-06T09:12:27.662Z,102008.48
2018-04-06T09:13:32.659Z,101999.13
2018-04-06T09:14:36.847Z,102001.66
2018-04-06T09:15:41.824Z,101997.86
2018-04-06T09:16:48.815Z,101996.14
2018-04-06T09:17:53.527Z,101997.84
2018-04-06T09:18:58.512Z,101996.09
2018-04-06T09:20:02.711Z,101992.27
2018-04-06T09:21:07.670Z,101988.39
2018-04-06T09:22:11.972Z,101984.11
2018-04-06T09:23:20.417Z,101978.11
2018-04-06T09:24:28.220Z,101975.11
2018-04-06T09:25:33.306Z,101976.35
2018-04-06T09:26:37.521Z,101975.91
2018-04-06T09:27:41.720Z,101979.36
2018-04-06T09:28:49.281Z,101981.92
2018-04-06T09:29:56.744Z,101969.11
2018-04-06T09:31:01.437Z,101970.80
2018-04-06T09:32:05.666Z,101955.86
2018-04-06T09:33:09.877Z,101961.42
2018-04-06T09:34:18.216Z,101964.83
2018-04-06T09:35:25.289Z,101958.82
2018-04-06T09:36:30.734Z,101968.63
2018-04-06T09:37:35.296Z,101957.58
2018-04-06T09:38:39.495Z,101959.70
2018-04-06T09:39:45.771Z,101951.61
2018-04-06T09:40:53.286Z,101957.14
2018-04-06T09:42:00.132Z,101957.09
2018-04-06T09:43:04.424Z,101957.48
2018-04-06T09:44:09.415Z,101957.44
2018-04-06T09:45:15.537Z,101947.57
2018-04-06T09:46:23.548Z,101942.43
2018-04-06T09:47:29.251Z,101950.06
2018-04-06T09:48:33.504Z,101947.06
2018-04-06T09:49:37.790Z,101945.33
2018-04-06T09:50:42.914Z,101947.00
2018-04-06T09:51:51.589Z,101945.33
2018-04-06T09:52:58.204Z,101945.26
2018-04-06T09:54:02.752Z,101937.58
2018-04-06T09:55:06.953Z,101935.91
2018-04-06T09:56:11.156Z,101935.89
2018-04-06T09:57:18.240Z,101939.75
2018-04-06T09:58:25.239Z,101938.41
2018-04-06T09:59:30.123Z,101936.22
2018-04-06T10:00:34.336Z,101931.16
2018-04-06T10:01:38.643Z,101929.41
2018-04-06T10:02:46.950Z,101935.31
2018-04-06T10:03:54.778Z,101931.83
2018-04-06T10:04:59.169Z,101934.38
2018-04-06T10:06:03.361Z,101934.37
2018-04-06T10:07:08.375Z,101928.81
2018-04-06T10:08:14.569Z,101922.78
2018-04-06T10:09:19.804Z,101924.43
2018-04-06T10:10:26.779Z,101922.69
2018-04-06T10:11:31.227Z,101921.76
2018-04-06T10:12:35.485Z,101912.00
2018-04-06T10:13:39.703Z,101918.84
2018-04-06T10:14:49.974Z,101917.48
2018-04-06T10:15:58.392Z,101911.91
2018-04-06T10:17:02.606Z,101917.39
2018-04-06T10:18:06.965Z,101914.34
2018-04-06T10:19:11.977Z,101911.78
2018-04-06T10:20:19.241Z,101912.64
2018-04-06T10:21:27.150Z,101909.23
2018-04-06T10:22:31.403Z,101908.30
2018-04-06T10:23:36.381Z,101909.55
2018-04-06T10:24:40.974Z,101903.95
2018-04-06T10:25:48.698Z,101909.49
2018-04-06T10:26:55.161Z,101910.31
2018-04-06T10:28:01.594Z,101906.09
2018-04-06T10:29:06.534Z,101911.55
2018-04-06T10:30:10.766Z,101920.06
2018-04-06T10:31:19.972Z,101909.03
2018-04-06T10:32:28.642Z,101900.02
2018-04-06T10:33:34.022Z,101901.32
2018-04-06T10:34:38.284Z,101902.31
2018-04-06T10:35:42.541Z,101895.45
2018-04-06T10:36:53.777Z,101901.07
2018-04-06T10:38:00.705Z,101901.03
2018-04-06T10:39:08.063Z,101894.16
2018-04-06T10:40:12.628Z,101892.86
2018-04-06T10:41:22.839Z,101889.34
2018-04-06T10:42:29.055Z,101891.39
2018-04-06T10:43:33.343Z,101889.97
2018-04-06T10:44:37.547Z,101883.03
2018-04-06T10:45:41.786Z,101882.05
2018-04-06T10:46:53.320Z,101882.16
2018-04-06T10:47:59.704Z,101879.11
2018-04-06T10:49:03.987Z,101869.16
2018-04-06T10:50:08.197Z,101874.62
2018-04-06T10:51:12.634Z,101873.64
2018-04-06T10:52:21.806Z,101875.41
2018-04-06T10:53:28.383Z,101882.56
2018-04-06T10:54:33.394Z,101885.02
2018-04-06T10:55:37.627Z,101886.25
2018-04-06T10:56:43.761Z,101874.20
2018-04-06T10:57:53.216Z,101875.79
2018-04-06T10:58:57.735Z,101873.99
2018-04-06T11:00:02.743Z,101867.42
2018-04-06T11:01:06.962Z,101863.20
2018-04-06T11:02:11.201Z,101869.09
2018-04-06T11:03:19.149Z,101868.14
2018-04-06T11:04:26.660Z,101866.27
2018-04-06T11:05:32.647Z,101855.59
2018-04-06T11:06:36.856Z,101852.56
2018-04-06T11:07:41.047Z,101860.97
2018-04-06T11:08:49.673Z,101854.31
2018-04-06T11:09:56.609Z,101853.67
2018-04-06T11:11:01.484Z,101863.50
2018-04-06T11:12:05.700Z,101858.69
2018-04-06T11:13:09.904Z,101858.67
2018-04-06T11:14:16.006Z,101859.30
2018-04-06T11:15:21.972Z,101859.10
2018-04-06T11:16:27.247Z,101860.28
2018-04-06T11:17:32.311Z,101850.80
2018-04-06T11:18:36.528Z,101854.19
2018-04-06T11:19:40.736Z,101848.19
2018-04-06T11:20:48.515Z,101842.17
2018-04-06T11:21:55.702Z,101834.95
2018-04-06T11:23:01.224Z,101833.52
2018-04-06T11:24:06.163Z,101832.19
2018-04-06T11:25:10.354Z,101828.94
2018-04-06T11:26:16.961Z,101843.70
2018-04-06T11:27:24.326Z,101837.24
2018-04-06T11:28:29.453Z,101815.69
2018-04-06T11:29:33.675Z,101830.52
2018-04-06T11:30:38.490Z,101829.95
2018-04-06T11:31:45.938Z,101822.12
2018-04-06T11:32:52.673Z,101823.99
2018-04-06T11:33:58.508Z,101824.83
2018-04-06T11:35:02.803Z,101826.39
2018-04-06T11:36:07.066Z,101821.91
2018-04-06T11:37:11.266Z,101828.03
2018-04-06T11:38:16.460Z,101824.27
2018-04-06T11:39:26.601Z,101828.85
2018-04-06T11:40:31.966Z,101828.78
2018-04-06T11:41:36.224Z,101831.16
2018-04-06T11:42:41.186Z,101823.67
2018-04-06T11:43:47.545Z,101823.16
2018-04-06T11:44:56.359Z,101829.88
2018-04-06T11:46:01.143Z,101832.75
2018-04-06T11:47:05.359Z,101831.62
2018-04-06T11:48:09.565Z,101824.92
2018-04-06T11:49:17.891Z,101820.36
2018-04-06T11:50:24.478Z,101819.83
2018-04-06T11:51:30.153Z,101821.95
2018-04-06T11:52:34.369Z,101817.83
2018-04-06T11:53:38.576Z,101819.84
2018-04-06T11:54:43.318Z,101816.48
2018-04-06T11:55:53.651Z,101808.52
2018-04-06T11:56:59.771Z,101811.92
2018-04-06T11:58:03.981Z,101804.53
2018-04-06T11:59:08.178Z,101803.08
2018-04-06T12:00:14.376Z,101802.11
2018-04-06T12:01:20.512Z,101798.41
2018-04-06T12:02:26.685Z,101787.84
2018-04-06T12:03:31.725Z,101784.67
2018-04-06T12:04:35.932Z,101790.69
2018-04-06T12:05:40.138Z,101788.52
2018-04-06T12:06:45.672Z,101792.57
2018-04-06T12:07:52.446Z,101785.09
2018-04-06T12:08:57.326Z,101775.05
2018-04-06T12:10:02.342Z,101775.68
2018-04-06T12:11:06.548Z,101772.19
2018-04-06T12:12:10.798Z,101773.83
2018-04-06T12:13:17.650Z,101779.70
2018-04-06T12:14:22.654Z,101767.05
2018-04-06T12:15:29.089Z,101758.33
2018-04-06T12:16:33.279Z,101772.94
2018-04-06T12:17:37.539Z,101766.00
2018-04-06T12:18:41.737Z,101766.59
2018-04-06T12:19:49.224Z,101764.71
2018-04-06T12:20:54.628Z,101758.31
2018-04-06T12:22:00.533Z,101763.68
2018-04-06T12:23:04.747Z,101763.28
2018-04-06T12:24:08.950Z,101759.61
2018-04-06T12:25:14.110Z,101762.78
2018-04-06T12:26:20.690Z,101759.20
2018-04-06T12:27:26.931Z,101754.53
2018-04-06T12:28:31.157Z,101760.91
2018-04-06T12:29:37.023Z,101763.02
2018-04-06T12:30:41.267Z,101755.59
2018-04-06T12:31:49.689Z,101752.11